createdAt,value
2019-06-20T00:01:59.822Z,79.90
2019-06-20T00:07:05.417Z,80.40
2019-06-20T00:12:11.046Z,80.90
2019-06-20T00:17:16.551Z,81.20
2019-06-20T00:22:21.980Z,81.60
2019-06-20T00:27:27.442Z,81.80
2019-06-20T00:32:33.009Z,82.00
2019-06-20T00:37:38.638Z,82.40
2019-06-20T00:42:44.102Z,82.50
2019-06-20T00:47:49.571Z,82.50
2019-06-20T00:52:55.177Z,82.40
2019-06-20T00:58:00.833Z,82.60
2019-06-20T01:03:06.298Z,83.00
2019-06-20T01:08:11.980Z,82.80
2019-06-20T01:13:32.493Z,82.50
2019-06-20T01:18:24.626Z,82.50
2019-06-20T01:23:30.107Z,82.20
2019-06-20T01:28:35.560Z,82.20
2019-06-20T01:33:41.189Z,82.00
2019-06-20T01:38:46.694Z,81.60
2019-06-20T01:43:52.242Z,81.00
2019-06-20T01:48:57.751Z,80.40
2019-06-20T01:54:03.447Z,80.00
2019-06-20T01:59:09.071Z,79.90
2019-06-20T02:04:14.662Z,79.90
2019-06-20T02:09:20.172Z,80.00
2019-06-20T02:14:25.607Z,80.30
2019-06-20T02:19:31.166Z,80.60
2019-06-20T02:24:36.603Z,80.60
2019-06-20T02:29:42.154Z,80.50
2019-06-20T02:34:47.795Z,80.40
2019-06-20T02:39:53.243Z,80.50
2019-06-20T02:44:58.693Z,80.90
2019-06-20T02:50:04.247Z,81.30
2019-06-20T02:55:09.886Z,81.40
2019-06-20T03:00:15.377Z,81.30
2019-06-20T03:05:20.861Z,81.10
2019-06-20T03:10:26.410Z,80.80
2019-06-20T03:15:31.881Z,80.60
2019-06-20T03:20:37.427Z,80.40
2019-06-20T03:25:42.935Z,80.30
2019-06-20T03:30:48.453Z,80.10
2019-06-20T03:35:53.980Z,79.90
2019-06-20T03:40:59.493Z,79.60
2019-06-20T03:46:04.974Z,79.40
2019-06-20T03:51:10.461Z,79.30
2019-06-20T03:56:17.585Z,79.10
2019-06-20T04:01:23.080Z,79.00
2019-06-20T04:06:28.540Z,78.90
2019-06-20T04:11:34.084Z,78.80
2019-06-20T04:16:39.588Z,78.60
2019-06-20T04:21:45.104Z,78.70
2019-06-20T04:26:50.653Z,78.60
2019-06-20T04:31:56.081Z,78.70
2019-06-20T04:37:01.552Z,78.70
2019-06-20T04:42:07.014Z,78.50
2019-06-20T04:47:13.188Z,78.70
2019-06-20T04:52:18.684Z,79.10
2019-06-20T04:57:24.130Z,79.00
2019-06-20T05:02:38.445Z,79.10
2019-06-20T05:07:44.014Z,79.00
2019-06-20T05:12:49.487Z,78.80
2019-06-20T05:17:54.985Z,78.00
2019-06-20T05:23:00.493Z,77.10
2019-06-20T05:28:05.939Z,76.40
2019-06-20T05:33:12.801Z,76.00
2019-06-20T05:38:18.295Z,75.90
2019-06-20T05:43:23.845Z,75.40
2019-06-20T05:48:29.291Z,74.90
2019-06-20T05:53:34.834Z,74.50
2019-06-20T05:58:40.438Z,73.90
2019-06-20T06:03:45.928Z,72.10
2019-06-20T06:08:51.933Z,67.80
2019-06-20T06:13:57.445Z,63.20
2019-06-20T06:19:03.159Z,58.50
2019-06-20T06:24:09.032Z,55.80
2019-06-20T06:29:16.433Z,53.20
2019-06-20T06:34:22.230Z,50.30
2019-06-20T06:39:27.975Z,49.60
2019-06-20T06:44:33.779Z,49.30
2019-06-20T06:49:39.796Z,49.80
2019-06-20T06:54:45.559Z,50.10
2019-06-20T06:59:51.339Z,50.00
2019-06-20T07:04:57.158Z,47.20
2019-06-20T07:10:03.063Z,39.90
2019-06-20T07:15:08.884Z,32.90
2019-06-20T07:20:15.464Z,31.30
2019-06-20T07:25:22.845Z,32.70
2019-06-20T07:30:28.659Z,33.70
2019-06-20T07:35:34.448Z,35.30
2019-06-20T07:40:40.295Z,35.40
2019-06-20T07:46:01.559Z,32.70
2019-06-20T07:50:53.616Z,29.90
2019-06-20T07:55:59.370Z,27.00
2019-06-20T08:01:05.145Z,25.50
2019-06-20T08:06:10.939Z,25.60
2019-06-20T08:11:16.772Z,24.10
2019-06-20T08:16:22.530Z,21.70
2019-06-20T08:21:28.571Z,21.30
2019-06-20T08:26:34.564Z,22.10
2019-06-20T08:31:40.322Z,23.30
2019-06-20T08:36:46.139Z,23.30
2019-06-20T08:41:51.925Z,22.70
2019-06-20T08:46:59.241Z,21.30
2019-06-20T08:52:05.594Z,21.20
2019-06-20T08:57:11.428Z,22.10
2019-06-20T09:02:17.193Z,23.10
2019-06-20T09:07:22.952Z,24.50
2019-06-20T09:12:28.804Z,25.90
2019-06-20T09:17:34.689Z,27.70
2019-06-20T09:22:40.531Z,28.20
2019-06-20T09:27:46.347Z,28.20
2019-06-20T09:32:52.819Z,28.60
2019-06-20T09:37:59.567Z,29.60
2019-06-20T09:43:05.631Z,29.60
2019-06-20T09:48:12.864Z,28.50
2019-06-20T09:53:18.689Z,25.20
2019-06-20T09:58:24.451Z,24.00
2019-06-20T10:03:30.219Z,24.30
2019-06-20T10:08:36.034Z,24.50
2019-06-20T10:13:41.792Z,24.60
2019-06-20T10:18:48.481Z,25.00
2019-06-20T10:23:54.254Z,25.50
2019-06-20T10:29:00.003Z,26.00
2019-06-20T10:34:05.921Z,26.40
2019-06-20T10:39:12.254Z,26.90
2019-06-20T10:44:17.998Z,27.50
2019-06-20T10:49:23.914Z,28.20
2019-06-20T10:54:29.762Z,28.20
2019-06-20T10:59:35.588Z,28.60
2019-06-20T11:04:42.404Z,29.00
2019-06-20T11:09:49.492Z,29.60
2019-06-20T11:14:55.290Z,29.60
2019-06-20T11:20:01.023Z,29.70
2019-06-20T11:25:07.358Z,30.30
2019-06-20T11:30:14.915Z,31.10
2019-06-20T11:35:20.820Z,31.90
2019-06-20T11:40:26.835Z,32.70
2019-06-20T11:45:32.531Z,32.90
2019-06-20T11:50:38.354Z,32.70
2019-06-20T11:55:44.425Z,32.60
2019-06-20T12:01:03.034Z,32.90
2019-06-20T12:05:57.762Z,33.00
2019-06-20T12:11:03.528Z,33.30
2019-06-20T12:16:09.289Z,33.30
2019-06-20T12:21:15.081Z,33.30
2019-06-20T12:26:20.941Z,33.30
2019-06-20T12:31:26.729Z,33.30
2019-06-20T12:36:32.481Z,33.60
2019-06-20T12:41:38.738Z,34.00
2019-06-20T12:46:46.974Z,34.70
2019-06-20T12:51:52.847Z,36.00
2019-06-20T12:56:58.571Z,37.70
2019-06-20T13:02:04.320Z,39.00
2019-06-20T13:07:10.175Z,40.60
2019-06-20T13:12:15.934Z,43.20
2019-06-20T13:17:21.401Z,45.60
2019-06-20T13:22:27.014Z,47.70
2019-06-20T13:27:32.522Z,49.90
2019-06-20T13:32:38.370Z,51.70
2019-06-20T13:37:45.645Z,53.00
2019-06-20T13:42:54.498Z,53.30
2019-06-20T13:47:58.927Z,53.00
2019-06-20T13:53:04.461Z,52.30
2019-06-20T13:58:10.190Z,52.30
2019-06-20T14:03:15.993Z,51.70
2019-06-20T14:08:21.486Z,52.00
2019-06-20T14:13:27.418Z,52.50
2019-06-20T14:18:33.242Z,52.70
2019-06-20T14:23:39.036Z,52.40
2019-06-20T14:28:46.013Z,51.70
2019-06-20T14:33:51.914Z,51.60
2019-06-20T14:38:57.649Z,52.20
2019-06-20T14:44:03.427Z,53.00
2019-06-20T14:49:08.979Z,53.10
2019-06-20T14:54:14.781Z,53.00
2019-06-20T14:59:20.251Z,53.50
2019-06-20T15:04:25.808Z,53.90
2019-06-20T15:09:31.400Z,54.50
2019-06-20T15:14:36.962Z,55.10
2019-06-20T15:19:42.425Z,55.40
2019-06-20T15:24:50.409Z,55.50
2019-06-20T15:29:56.302Z,55.20
2019-06-20T15:35:02.185Z,54.70
2019-06-20T15:40:07.860Z,54.70
2019-06-20T15:45:13.337Z,54.50
2019-06-20T15:50:18.896Z,53.80
2019-06-20T15:55:24.382Z,52.90
2019-06-20T16:00:29.913Z,52.40
2019-06-20T16:05:35.551Z,51.70
2019-06-20T16:10:41.367Z,50.70
2019-06-20T16:15:47.204Z,49.80
2019-06-20T16:20:52.935Z,49.00
2019-06-20T16:25:58.690Z,48.40
2019-06-20T16:31:10.149Z,48.20
2019-06-20T16:36:13.130Z,48.30
2019-06-20T16:41:19.130Z,48.20
2019-06-20T16:46:24.622Z,48.40
2019-06-20T16:51:30.107Z,48.90
2019-06-20T16:56:35.641Z,49.40
2019-06-20T17:01:41.109Z,49.80
2019-06-20T17:06:46.588Z,50.00
2019-06-20T17:11:52.180Z,50.00
2019-06-20T17:16:57.722Z,49.80
2019-06-20T17:22:03.291Z,49.90
2019-06-20T17:27:08.807Z,50.30
2019-06-20T17:32:14.300Z,50.90
2019-06-20T17:37:19.770Z,51.40
2019-06-20T17:42:25.217Z,51.90
2019-06-20T17:47:30.743Z,52.40
2019-06-20T17:52:36.304Z,53.00
2019-06-20T17:57:41.828Z,53.40
2019-06-20T18:02:47.390Z,53.70
2019-06-20T18:07:52.852Z,53.80
2019-06-20T18:12:58.532Z,53.80
2019-06-20T18:18:04.035Z,53.70
2019-06-20T18:23:09.496Z,53.80
2019-06-20T18:28:15.010Z,53.90
2019-06-20T18:33:20.454Z,54.00
2019-06-20T18:38:25.960Z,54.10
2019-06-20T18:43:31.467Z,54.20
2019-06-20T18:48:37.150Z,54.50
2019-06-20T18:53:42.731Z,54.70
2019-06-20T18:58:48.198Z,55.00
2019-06-20T19:03:53.767Z,55.40
2019-06-20T19:08:59.441Z,56.00
2019-06-20T19:14:05.029Z,56.10
2019-06-20T19:19:10.622Z,56.50
2019-06-20T19:24:16.227Z,56.90
2019-06-20T19:29:21.782Z,57.10
2019-06-20T19:34:27.325Z,57.00
2019-06-20T19:39:32.856Z,57.40
2019-06-20T19:44:38.352Z,57.70
2019-06-20T19:49:43.877Z,58.10
2019-06-20T19:54:49.363Z,58.80
2019-06-20T19:59:54.862Z,59.50
2019-06-20T20:05:00.412Z,60.30
2019-06-20T20:10:06.686Z,61.30
2019-06-20T20:15:12.304Z,62.30
2019-06-20T20:20:17.770Z,63.30
2019-06-20T20:25:23.410Z,64.20
2019-06-20T20:30:28.912Z,65.10
2019-06-20T20:35:35.843Z,66.20
2019-06-20T20:40:41.628Z,66.80
2019-06-20T20:45:47.142Z,67.60
2019-06-20T20:50:52.748Z,68.20
2019-06-20T20:55:58.272Z,68.80
2019-06-20T21:01:16.939Z,69.40
2019-06-20T21:06:22.411Z,70.00
2019-06-20T21:11:27.927Z,70.50
2019-06-20T21:16:33.578Z,71.10
2019-06-20T21:21:39.117Z,71.60
2019-06-20T21:26:49.634Z,72.10
2019-06-20T21:31:51.915Z,72.60
2019-06-20T21:36:57.447Z,73.10
2019-06-20T21:42:02.923Z,73.50
2019-06-20T21:47:08.409Z,73.90
2019-06-20T21:52:13.930Z,74.30
2019-06-20T21:57:19.476Z,74.60
2019-06-20T22:02:24.972Z,74.70
2019-06-20T22:07:30.613Z,74.90
2019-06-20T22:12:36.229Z,74.90
2019-06-20T22:17:41.724Z,75.00
2019-06-20T22:22:47.196Z,75.20
2019-06-20T22:27:52.656Z,75.40
2019-06-20T22:32:58.192Z,75.70
2019-06-20T22:38:03.755Z,75.70
2019-06-20T22:43:09.239Z,75.50
2019-06-20T22:48:14.821Z,75.30
2019-06-20T22:53:20.302Z,75.20
2019-06-20T22:58:25.905Z,74.90
2019-06-20T23:03:31.497Z,74.70
2019-06-20T23:08:36.930Z,74.50
2019-06-20T23:13:42.473Z,74.60
2019-06-20T23:18:48.021Z,74.70
2019-06-20T23:23:53.500Z,75.30
2019-06-20T23:29:16.432Z,74.50
2019-06-20T23:34:22.189Z,74.60
2019-06-20T23:39:28.493Z,74.60
2019-06-20T23:44:34.148Z,74.60
2019-06-20T23:49:39.756Z,74.50
2019-06-20T23:54:45.512Z,74.50
2019-06-20T23:59:50.966Z,74.20
